createdAt,value
2023-02-24T00:00:18.775Z,88.00
2023-02-24T00:01:19.139Z,87.90
2023-02-24T00:02:18.825Z,87.96
2023-02-24T00:03:18.800Z,87.75
2023-02-24T00:04:18.729Z,87.69
2023-02-24T00:05:18.749Z,87.59
2023-02-24T00:06:18.732Z,87.59
2023-02-24T00:07:18.768Z,87.90
2023-02-24T00:08:18.718Z,87.90
2023-02-24T00:09:18.711Z,88.00
2023-02-24T00:10:18.720Z,87.90
2023-02-24T00:11:19.161Z,87.69
2023-02-24T00:12:18.711Z,87.79
2023-02-24T00:13:18.710Z,87.59
2023-02-24T00:14:18.707Z,87.38
2023-02-24T00:15:18.669Z,87.49
2023-02-24T00:16:18.816Z,87.49
2023-02-24T00:17:18.766Z,87.38
2023-02-24T00:18:18.658Z,87.38
2023-02-24T00:19:18.663Z,87.49
2023-02-24T00:20:18.666Z,87.49
2023-02-24T00:21:19.227Z,88.41
2023-02-24T00:22:18.637Z,87.90
2023-02-24T00:23:18.719Z,88.20
2023-02-24T00:24:18.658Z,88.51
2023-02-24T00:25:18.710Z,88.10
2023-02-24T00:26:18.641Z,88.31
2023-02-24T00:27:18.625Z,88.20
2023-02-24T00:28:18.630Z,88.20
2023-02-24T00:29:18.618Z,88.10
2023-02-24T00:30:18.659Z,88.31
2023-02-24T00:31:18.777Z,88.20
2023-02-24T00:32:18.771Z,88.20
2023-02-24T00:33:18.607Z,88.20
2023-02-24T00:34:18.616Z,88.10
2023-02-24T00:35:18.620Z,87.38
2023-02-24T00:36:18.629Z,87.59
2023-02-24T00:37:18.613Z,87.59
2023-02-24T00:38:18.596Z,87.69
2023-02-24T00:39:19.606Z,87.69
2023-02-24T00:40:18.597Z,88.14
2023-02-24T00:41:18.918Z,88.24
2023-02-24T00:42:18.619Z,89.42
2023-02-24T00:43:18.565Z,89.22
2023-02-24T00:44:18.612Z,88.70
2023-02-24T00:45:18.588Z,89.94
2023-02-24T00:46:18.692Z,89.42
2023-02-24T00:47:18.584Z,90.18
2023-02-24T00:48:18.637Z,89.67
2023-02-24T00:49:18.572Z,90.03
2023-02-24T00:50:18.541Z,90.03
2023-02-24T00:51:18.765Z,89.87
2023-02-24T00:52:18.558Z,89.94
2023-02-24T00:53:18.536Z,89.94
2023-02-24T00:54:18.516Z,90.34
2023-02-24T00:55:18.539Z,90.03
2023-02-24T00:56:18.516Z,89.89
2023-02-24T00:57:18.647Z,89.79
2023-02-24T00:58:18.514Z,89.73
2023-02-24T00:59:18.505Z,89.28
2023-02-24T01:00:18.527Z,89.38
2023-02-24T01:01:18.715Z,89.07
2023-02-24T01:02:18.581Z,89.38
2023-02-24T01:03:18.493Z,88.96
2023-02-24T01:04:18.506Z,89.28
2023-02-24T01:05:18.469Z,89.28
2023-02-24T01:06:18.493Z,89.38
2023-02-24T01:07:18.506Z,88.45
2023-02-24T01:08:18.463Z,89.17
2023-02-24T01:09:18.439Z,88.45
2023-02-24T01:10:18.514Z,89.05
2023-02-24T01:11:18.732Z,89.56
2023-02-24T01:12:18.507Z,89.97
2023-02-24T01:13:18.486Z,90.64
2023-02-24T01:14:18.468Z,91.71
2023-02-24T01:15:18.442Z,92.12
2023-02-24T01:16:18.461Z,92.33
2023-02-24T01:17:18.466Z,92.57
2023-02-24T01:18:18.449Z,92.88
2023-02-24T01:19:18.411Z,93.09
2023-02-24T01:20:18.391Z,93.50
2023-02-24T01:21:18.620Z,93.81
2023-02-24T01:22:18.431Z,94.17
2023-02-24T01:23:18.403Z,94.53
2023-02-24T01:24:18.393Z,94.95
2023-02-24T01:25:18.410Z,94.53
2023-02-24T01:26:18.406Z,94.43
2023-02-24T01:27:18.364Z,94.12
2023-02-24T01:28:18.383Z,93.71
2023-02-24T01:29:18.370Z,93.09
2023-02-24T01:30:18.685Z,93.71
2023-02-24T01:31:18.603Z,93.35
2023-02-24T01:32:18.557Z,93.25
2023-02-24T01:33:18.438Z,93.05
2023-02-24T01:34:18.348Z,92.69
2023-02-24T01:35:18.375Z,92.59
2023-02-24T01:36:18.353Z,92.29
2023-02-24T01:37:18.330Z,92.02
2023-02-24T01:38:18.363Z,91.46
2023-02-24T01:39:18.350Z,91.56
2023-02-24T01:40:18.341Z,91.46
2023-02-24T01:41:18.699Z,91.46
2023-02-24T01:42:18.331Z,91.52
2023-02-24T01:43:18.314Z,91.31
2023-02-24T01:44:18.290Z,91.00
2023-02-24T01:45:18.300Z,90.59
2023-02-24T01:46:18.388Z,90.49
2023-02-24T01:47:18.307Z,90.28
2023-02-24T01:48:18.304Z,90.08
2023-02-24T01:49:18.269Z,89.87
2023-02-24T01:50:18.258Z,90.08
2023-02-24T01:51:18.493Z,89.25
2023-02-24T01:52:18.259Z,89.71
2023-02-24T01:53:18.259Z,90.88
2023-02-24T01:54:18.312Z,90.99
2023-02-24T01:55:18.242Z,91.71
2023-02-24T01:56:18.254Z,91.71
2023-02-24T01:57:18.260Z,91.56
2023-02-24T01:58:18.259Z,91.25
2023-02-24T01:59:18.241Z,91.25
2023-02-24T02:00:18.231Z,91.66
2023-02-24T02:01:18.316Z,91.15
2023-02-24T02:02:18.380Z,90.73
2023-02-24T02:03:18.215Z,90.08
2023-02-24T02:04:18.212Z,89.81
2023-02-24T02:05:18.232Z,90.22
2023-02-24T02:06:18.196Z,89.81
2023-02-24T02:07:18.190Z,90.33
2023-02-24T02:08:18.230Z,89.81
2023-02-24T02:09:18.194Z,90.08
2023-02-24T02:10:18.175Z,89.50
2023-02-24T02:11:18.431Z,89.71
2023-02-24T02:12:18.159Z,90.26
2023-02-24T02:13:18.245Z,90.99
2023-02-24T02:14:18.168Z,91.34
2023-02-24T02:15:18.176Z,91.85
2023-02-24T02:16:18.199Z,92.37
2023-02-24T02:17:18.152Z,92.82
2023-02-24T02:18:18.185Z,92.99
2023-02-24T02:19:18.121Z,93.09
2023-02-24T02:20:18.150Z,92.99
2023-02-24T02:21:18.368Z,92.78
2023-02-24T02:22:18.159Z,92.57
2023-02-24T02:23:18.119Z,92.43
2023-02-24T02:24:18.107Z,92.29
2023-02-24T02:25:18.099Z,91.71
2023-02-24T02:26:18.163Z,91.71
2023-02-24T02:27:18.085Z,91.46
2023-02-24T02:28:18.103Z,91.05
2023-02-24T02:29:18.107Z,90.94
2023-02-24T02:30:18.077Z,90.73
2023-02-24T02:31:18.254Z,90.53
2023-02-24T02:32:18.225Z,90.01
2023-02-24T02:33:18.086Z,90.39
2023-02-24T02:34:18.057Z,90.43
2023-02-24T02:35:18.080Z,90.43
2023-02-24T02:36:18.090Z,90.08
2023-02-24T02:37:18.062Z,89.36
2023-02-24T02:38:18.058Z,89.56
2023-02-24T02:39:18.088Z,89.36
2023-02-24T02:40:18.049Z,89.15
2023-02-24T02:41:18.267Z,89.87
2023-02-24T02:42:18.036Z,89.05
2023-02-24T02:43:18.045Z,89.46
2023-02-24T02:44:18.055Z,89.40
2023-02-24T02:45:18.054Z,89.56
2023-02-24T02:46:18.006Z,89.67
2023-02-24T02:47:18.047Z,89.36
2023-02-24T02:48:18.046Z,89.09
2023-02-24T02:49:18.003Z,89.50
2023-02-24T02:50:18.006Z,89.71
2023-02-24T02:51:18.384Z,89.25
2023-02-24T02:52:18.030Z,89.15
2023-02-24T02:53:18.024Z,89.40
2023-02-24T02:54:17.975Z,89.46
2023-02-24T02:55:17.963Z,89.36
2023-02-24T02:56:17.963Z,89.50
2023-02-24T02:57:18.025Z,89.19
2023-02-24T02:58:17.983Z,89.09
2023-02-24T02:59:17.982Z,88.64
2023-02-24T03:00:17.975Z,88.37
2023-02-24T03:01:18.051Z,88.23
2023-02-24T03:02:17.969Z,88.53
2023-02-24T03:03:17.931Z,87.51
2023-02-24T03:04:18.019Z,87.85
2023-02-24T03:05:17.921Z,87.96
2023-02-24T03:06:18.412Z,87.65
2023-02-24T03:07:17.993Z,89.03
2023-02-24T03:08:17.934Z,89.38
2023-02-24T03:09:17.939Z,89.79
2023-02-24T03:10:17.901Z,91.07
2023-02-24T03:11:18.009Z,91.94
2023-02-24T03:12:17.872Z,92.86
2023-02-24T03:13:17.867Z,93.79
2023-02-24T03:14:17.919Z,94.56
2023-02-24T03:15:17.900Z,94.25
2023-02-24T03:16:17.901Z,94.35
2023-02-24T03:17:17.874Z,94.56
2023-02-24T03:18:17.881Z,95.14
2023-02-24T03:19:17.848Z,94.82
2023-02-24T03:20:17.878Z,94.21
2023-02-24T03:21:17.822Z,93.49
2023-02-24T03:22:17.871Z,93.28
2023-02-24T03:23:17.820Z,92.82
2023-02-24T03:24:17.848Z,92.61
2023-02-24T03:25:17.830Z,92.35
2023-02-24T03:26:17.876Z,92.46
2023-02-24T03:27:17.862Z,92.66
2023-02-24T03:28:17.802Z,92.86
2023-02-24T03:29:17.805Z,92.76
2023-02-24T03:30:17.811Z,93.07
2023-02-24T03:31:17.921Z,92.86
2023-02-24T03:32:17.950Z,92.80
2023-02-24T03:33:17.804Z,93.12
2023-02-24T03:34:17.769Z,93.57
2023-02-24T03:35:17.775Z,93.53
2023-02-24T03:36:17.797Z,93.22
2023-02-24T03:37:17.743Z,93.32
2023-02-24T03:38:17.775Z,93.07
2023-02-24T03:39:17.758Z,93.84
2023-02-24T03:40:17.774Z,93.07
2023-02-24T03:41:17.793Z,93.07
2023-02-24T03:42:17.736Z,92.66
2023-02-24T03:43:17.790Z,92.35
2023-02-24T03:44:17.734Z,92.04
2023-02-24T03:45:17.723Z,91.16
2023-02-24T03:46:17.757Z,91.71
2023-02-24T03:47:17.730Z,91.82
2023-02-24T03:48:17.736Z,92.54
2023-02-24T03:49:17.790Z,92.85
2023-02-24T03:50:17.702Z,92.19
2023-02-24T03:51:17.796Z,91.56
2023-02-24T03:52:17.688Z,91.56
2023-02-24T03:53:17.711Z,91.56
2023-02-24T03:54:17.706Z,91.77
2023-02-24T03:55:17.680Z,91.46
2023-02-24T03:56:17.675Z,91.16
2023-02-24T03:57:17.652Z,90.95
2023-02-24T03:58:17.686Z,91.05
2023-02-24T03:59:17.667Z,90.74
2023-02-24T04:00:17.656Z,90.84
2023-02-24T04:01:17.654Z,89.92
2023-02-24T04:02:17.678Z,90.74
2023-02-24T04:03:17.669Z,90.43
2023-02-24T04:04:17.705Z,90.53
2023-02-24T04:05:17.637Z,90.64
2023-02-24T04:06:17.638Z,91.26
2023-02-24T04:07:17.602Z,90.95
2023-02-24T04:08:17.611Z,90.64
2023-02-24T04:09:17.638Z,90.43
2023-02-24T04:10:17.700Z,90.22
2023-02-24T04:11:17.832Z,89.92
2023-02-24T04:12:17.594Z,91.20
2023-02-24T04:13:17.630Z,91.36
2023-02-24T04:14:17.616Z,91.46
2023-02-24T04:15:17.594Z,91.16
2023-02-24T04:16:17.585Z,90.64
2023-02-24T04:17:17.573Z,91.40
2023-02-24T04:18:17.541Z,91.30
2023-02-24T04:19:17.543Z,91.50
2023-02-24T04:20:17.616Z,91.61
2023-02-24T04:21:17.607Z,91.50
2023-02-24T04:22:17.569Z,91.30
2023-02-24T04:23:17.525Z,90.26
2023-02-24T04:24:17.566Z,89.86
2023-02-24T04:25:17.565Z,90.52
2023-02-24T04:26:17.533Z,90.41
2023-02-24T04:27:17.510Z,90.14
2023-02-24T04:28:17.493Z,90.25
2023-02-24T04:29:17.573Z,90.25
2023-02-24T04:30:17.494Z,90.41
2023-02-24T04:31:17.791Z,90.62
2023-02-24T04:32:17.600Z,89.79
2023-02-24T04:33:17.485Z,90.35
2023-02-24T04:34:17.488Z,89.89
2023-02-24T04:35:17.489Z,90.31
2023-02-24T04:36:17.502Z,90.20
2023-02-24T04:37:17.525Z,90.41
2023-02-24T04:38:17.470Z,89.69
2023-02-24T04:39:17.465Z,89.28
2023-02-24T04:40:17.492Z,89.17
2023-02-24T04:41:17.452Z,88.96
2023-02-24T04:42:17.440Z,88.61
2023-02-24T04:43:17.485Z,88.51
2023-02-24T04:44:17.466Z,88.61
2023-02-24T04:45:17.477Z,88.31
2023-02-24T04:46:17.527Z,87.89
2023-02-24T04:47:17.475Z,88.51
2023-02-24T04:48:17.410Z,88.51
2023-02-24T04:49:17.406Z,88.10
2023-02-24T04:50:17.425Z,88.16
2023-02-24T04:51:17.398Z,87.74
2023-02-24T04:52:17.403Z,87.74
2023-02-24T04:53:17.415Z,87.74
2023-02-24T04:54:17.550Z,86.86
2023-02-24T04:55:17.410Z,87.23
2023-02-24T04:56:17.431Z,86.34
2023-02-24T04:57:17.393Z,86.20
2023-02-24T04:58:17.366Z,86.20
2023-02-24T04:59:17.353Z,86.05
2023-02-24T05:00:17.427Z,85.95
2023-02-24T05:01:17.365Z,85.54
2023-02-24T05:02:19.975Z,85.68
2023-02-24T05:03:18.471Z,85.75
2023-02-24T05:04:17.380Z,85.95
2023-02-24T05:05:17.339Z,86.05
2023-02-24T05:06:17.325Z,86.16
2023-02-24T05:07:17.358Z,86.10
2023-02-24T05:08:17.322Z,86.82
2023-02-24T05:09:17.321Z,86.82
2023-02-24T05:10:17.292Z,87.65
2023-02-24T05:11:17.309Z,87.13
2023-02-24T05:12:18.115Z,85.99
2023-02-24T05:13:18.498Z,86.61
2023-02-24T05:14:17.783Z,86.82
2023-02-24T05:15:19.597Z,87.13
2023-02-24T05:16:17.988Z,87.68
2023-02-24T05:17:18.343Z,87.48
2023-02-24T05:18:17.554Z,87.99
2023-02-24T05:19:17.253Z,87.99
2023-02-24T05:20:17.284Z,88.24
2023-02-24T05:21:17.238Z,88.28
2023-02-24T05:22:18.685Z,88.28
2023-02-24T05:23:19.253Z,89.01
2023-02-24T05:24:17.330Z,88.70
2023-02-24T05:25:17.234Z,88.80
2023-02-24T05:26:17.402Z,88.70
2023-02-24T05:27:17.241Z,89.22
2023-02-24T05:28:17.215Z,89.52
2023-02-24T05:29:17.258Z,89.38
2023-02-24T05:30:17.228Z,88.45
2023-02-24T05:31:17.332Z,88.04
2023-02-24T05:32:17.346Z,87.87
2023-02-24T05:33:17.189Z,88.18
2023-02-24T05:34:17.221Z,88.18
2023-02-24T05:35:17.195Z,88.04
2023-02-24T05:36:17.204Z,88.55
2023-02-24T05:37:17.212Z,88.14
2023-02-24T05:38:17.174Z,88.28
2023-02-24T05:39:17.150Z,88.07
2023-02-24T05:40:17.205Z,88.80
2023-02-24T05:41:17.220Z,89.01
2023-02-24T05:42:17.168Z,88.70
2023-02-24T05:43:17.668Z,89.67
2023-02-24T05:44:17.118Z,89.87
2023-02-24T05:45:17.113Z,89.36
2023-02-24T05:46:17.226Z,89.67
2023-02-24T05:47:17.143Z,89.29
2023-02-24T05:48:17.136Z,90.12
2023-02-24T05:49:17.115Z,89.56
2023-02-24T05:50:17.096Z,90.08
2023-02-24T05:51:17.120Z,89.09
2023-02-24T05:52:17.127Z,88.98
2023-02-24T05:53:17.094Z,89.36
2023-02-24T05:54:18.081Z,88.94
2023-02-24T05:55:17.084Z,88.74
2023-02-24T05:56:17.057Z,88.80
2023-02-24T05:57:17.095Z,88.07
2023-02-24T05:58:17.101Z,88.39
2023-02-24T05:59:17.062Z,88.70
2023-02-24T06:00:17.050Z,87.97
2023-02-24T06:01:17.050Z,87.97
2023-02-24T06:02:17.101Z,88.28
2023-02-24T06:03:17.245Z,88.24
2023-02-24T06:04:17.035Z,88.34
2023-02-24T06:05:18.033Z,87.83
2023-02-24T06:06:17.042Z,87.10
2023-02-24T06:07:17.028Z,86.86
2023-02-24T06:08:17.041Z,86.86
2023-02-24T06:09:17.001Z,86.61
2023-02-24T06:10:17.014Z,86.10
2023-02-24T06:11:16.973Z,86.10
2023-02-24T06:12:17.037Z,86.30
2023-02-24T06:13:17.077Z,86.03
2023-02-24T06:14:17.000Z,86.24
2023-02-24T06:15:16.998Z,86.34
2023-02-24T06:16:17.003Z,86.24
2023-02-24T06:17:17.068Z,86.10
2023-02-24T06:18:16.985Z,86.13
2023-02-24T06:19:17.721Z,86.24
2023-02-24T06:20:17.922Z,86.03
2023-02-24T06:21:16.923Z,86.96
2023-02-24T06:22:16.933Z,85.97
2023-02-24T06:23:16.931Z,87.15
2023-02-24T06:24:17.111Z,87.52
2023-02-24T06:25:16.925Z,88.07
2023-02-24T06:26:16.931Z,88.04
2023-02-24T06:27:16.894Z,87.41
2023-02-24T06:28:16.892Z,87.04
2023-02-24T06:29:16.956Z,87.46
2023-02-24T06:30:16.931Z,87.87
2023-02-24T06:31:16.977Z,88.18
2023-02-24T06:32:16.999Z,88.39
2023-02-24T06:33:16.900Z,88.59
2023-02-24T06:34:16.919Z,88.07
2023-02-24T06:35:16.952Z,87.66
2023-02-24T06:36:16.878Z,87.10
2023-02-24T06:37:16.883Z,87.10
2023-02-24T06:38:17.142Z,87.00
2023-02-24T06:39:16.850Z,86.65
2023-02-24T06:40:16.907Z,85.93
2023-02-24T06:41:16.860Z,85.93
2023-02-24T06:42:16.837Z,85.72
2023-02-24T06:43:16.803Z,86.13
2023-02-24T06:44:17.824Z,85.62
2023-02-24T06:45:16.851Z,84.79
2023-02-24T06:46:16.851Z,84.28
2023-02-24T06:47:16.792Z,84.86
2023-02-24T06:48:16.775Z,84.65
2023-02-24T06:49:16.789Z,83.93
2023-02-24T06:50:16.824Z,84.81
2023-02-24T06:51:16.853Z,84.44
2023-02-24T06:52:16.904Z,84.44
2023-02-24T06:53:16.774Z,84.51
2023-02-24T06:54:16.750Z,84.61
2023-02-24T06:55:16.856Z,84.81
2023-02-24T06:56:16.785Z,84.81
2023-02-24T06:57:16.741Z,84.81
2023-02-24T06:58:16.737Z,83.68
2023-02-24T06:59:16.736Z,84.09
2023-02-24T07:00:16.718Z,83.44
2023-02-24T07:01:16.800Z,83.64
2023-02-24T07:02:16.709Z,83.95
2023-02-24T07:03:16.715Z,84.06
2023-02-24T07:04:16.724Z,83.95
2023-02-24T07:05:16.716Z,83.85
2023-02-24T07:06:16.711Z,83.75
2023-02-24T07:07:16.690Z,83.81
2023-02-24T07:08:16.716Z,83.64
2023-02-24T07:09:16.747Z,83.54
2023-02-24T07:10:16.670Z,83.09
2023-02-24T07:11:16.685Z,84.01
2023-02-24T07:12:16.713Z,83.71
2023-02-24T07:13:16.680Z,83.23
2023-02-24T07:14:16.657Z,82.78
2023-02-24T07:15:16.693Z,82.37
2023-02-24T07:16:16.816Z,83.19
2023-02-24T07:17:16.690Z,83.44
2023-02-24T07:18:16.707Z,83.64
2023-02-24T07:19:16.633Z,84.16
2023-02-24T07:20:16.629Z,83.64
2023-02-24T07:21:16.620Z,83.85
2023-02-24T07:22:16.672Z,83.54
2023-02-24T07:23:16.599Z,84.27
2023-02-24T07:24:16.600Z,83.75
2023-02-24T07:25:16.609Z,83.50
2023-02-24T07:26:16.589Z,84.01
2023-02-24T07:27:16.659Z,83.87
2023-02-24T07:28:16.595Z,83.87
2023-02-24T07:29:16.600Z,83.67
2023-02-24T07:30:16.595Z,83.73
2023-02-24T07:31:16.646Z,82.97
2023-02-24T07:32:16.656Z,83.18
2023-02-24T07:33:16.567Z,82.46
2023-02-24T07:34:16.568Z,81.63
2023-02-24T07:35:16.556Z,82.95
2023-02-24T07:36:16.558Z,83.99
2023-02-24T07:37:17.582Z,85.13
2023-02-24T07:38:16.532Z,84.41
2023-02-24T07:39:17.136Z,83.44
2023-02-24T07:40:16.546Z,82.40
2023-02-24T07:41:16.526Z,82.78
2023-02-24T07:42:16.552Z,82.89
2023-02-24T07:43:16.506Z,82.12
2023-02-24T07:44:16.550Z,81.37
2023-02-24T07:45:16.529Z,80.13
2023-02-24T07:46:16.545Z,80.13
2023-02-24T07:47:16.505Z,79.93
2023-02-24T07:48:16.485Z,80.47
2023-02-24T07:49:16.502Z,80.86
2023-02-24T07:50:16.466Z,81.48
2023-02-24T07:51:16.468Z,81.58
2023-02-24T07:52:16.475Z,82.40
2023-02-24T07:53:16.542Z,82.47
2023-02-24T07:54:16.461Z,82.33
2023-02-24T07:55:16.485Z,82.43
2023-02-24T07:56:16.445Z,81.77
2023-02-24T07:57:16.447Z,81.95
2023-02-24T07:58:16.464Z,81.33
2023-02-24T07:59:16.440Z,79.95
2023-02-24T08:00:16.447Z,79.33
2023-02-24T08:01:16.438Z,79.75
2023-02-24T08:02:16.619Z,77.79
2023-02-24T08:03:16.485Z,76.73
2023-02-24T08:04:16.448Z,76.21
2023-02-24T08:05:16.490Z,74.77
2023-02-24T08:06:16.408Z,74.87
2023-02-24T08:07:16.456Z,72.30
2023-02-24T08:08:16.382Z,71.58
2023-02-24T08:09:16.417Z,71.37
2023-02-24T08:10:16.393Z,72.72
2023-02-24T08:11:16.378Z,73.85
2023-02-24T08:12:16.421Z,74.12
2023-02-24T08:13:16.375Z,71.96
2023-02-24T08:14:16.405Z,71.96
2023-02-24T08:15:16.381Z,72.24
2023-02-24T08:16:16.483Z,70.94
2023-02-24T08:17:16.354Z,71.62
2023-02-24T08:18:16.357Z,71.41
2023-02-24T08:19:16.354Z,72.20
2023-02-24T08:20:16.372Z,70.46
2023-02-24T08:21:16.359Z,69.15
2023-02-24T08:22:16.346Z,71.00
2023-02-24T08:23:16.329Z,71.00
2023-02-24T08:24:16.338Z,70.08
2023-02-24T08:25:16.421Z,69.42
2023-02-24T08:26:16.378Z,70.45
2023-02-24T08:27:16.313Z,70.35
2023-02-24T08:28:16.289Z,71.07
2023-02-24T08:29:16.342Z,71.04
2023-02-24T08:30:16.293Z,71.96
2023-02-24T08:31:16.422Z,71.21
2023-02-24T08:32:17.948Z,70.90
2023-02-24T08:33:16.268Z,70.49
2023-02-24T08:34:16.267Z,70.28
2023-02-24T08:35:16.285Z,71.24
2023-02-24T08:36:16.289Z,71.11
2023-02-24T08:37:16.277Z,70.79
2023-02-24T08:38:16.304Z,70.18
2023-02-24T08:39:16.239Z,70.70
2023-02-24T08:40:16.256Z,70.76
2023-02-24T08:41:16.278Z,72.10
2023-02-24T08:42:16.248Z,70.90
2023-02-24T08:43:16.322Z,70.04
2023-02-24T08:44:16.245Z,70.76
2023-02-24T08:45:16.233Z,71.89
2023-02-24T08:46:16.250Z,71.59
2023-02-24T08:47:16.229Z,71.21
2023-02-24T08:48:16.224Z,71.04
2023-02-24T08:49:16.207Z,70.83
2023-02-24T08:50:16.192Z,71.66
2023-02-24T08:51:16.216Z,72.99
2023-02-24T08:52:16.194Z,71.96
2023-02-24T08:53:16.205Z,71.66
2023-02-24T08:54:16.196Z,72.17
2023-02-24T08:55:16.207Z,72.27
2023-02-24T08:56:16.209Z,71.66
2023-02-24T08:57:16.239Z,70.01
2023-02-24T08:58:16.158Z,70.21
2023-02-24T08:59:16.168Z,70.62
2023-02-24T09:00:16.144Z,70.42
2023-02-24T09:01:16.281Z,70.32
2023-02-24T09:02:16.197Z,70.42
2023-02-24T09:03:16.144Z,69.98
2023-02-24T09:04:16.190Z,70.90
2023-02-24T09:05:16.180Z,71.08
2023-02-24T09:06:16.137Z,70.15
2023-02-24T09:07:16.170Z,68.61
2023-02-24T09:08:16.118Z,69.02
2023-02-24T09:09:16.106Z,70.87
2023-02-24T09:10:16.108Z,70.73
2023-02-24T09:11:16.094Z,71.25
2023-02-24T09:12:16.124Z,69.60
2023-02-24T09:13:16.128Z,68.88
2023-02-24T09:14:26.144Z,68.10
2023-02-24T09:15:18.095Z,67.38
2023-02-24T09:16:16.111Z,68.33
2023-02-24T09:17:16.107Z,68.91
2023-02-24T09:18:16.091Z,68.30
2023-02-24T09:19:16.079Z,69.02
2023-02-24T09:20:16.097Z,69.12
2023-02-24T09:21:16.223Z,68.91
2023-02-24T09:22:21.474Z,68.30
2023-02-24T09:23:18.055Z,67.41
2023-02-24T09:24:16.968Z,67.41
2023-02-24T09:25:17.170Z,67.65
2023-02-24T09:26:16.082Z,67.71
2023-02-24T09:27:16.066Z,66.51
2023-02-24T09:28:16.079Z,67.57
2023-02-24T09:29:16.031Z,68.37
2023-02-24T09:30:16.020Z,69.49
2023-02-24T09:31:16.204Z,68.60
2023-02-24T09:32:16.098Z,67.06
2023-02-24T09:33:16.137Z,67.88
2023-02-24T09:34:16.084Z,67.36
2023-02-24T09:35:16.013Z,67.88
2023-02-24T09:36:16.025Z,68.08
2023-02-24T09:37:15.983Z,68.29
2023-02-24T09:38:15.982Z,68.40
2023-02-24T09:39:15.987Z,69.09
2023-02-24T09:40:16.025Z,68.50
2023-02-24T09:41:18.860Z,68.60
2023-02-24T09:42:16.960Z,67.78
2023-02-24T09:43:15.970Z,68.91
2023-02-24T09:44:15.978Z,68.70
2023-02-24T09:45:15.970Z,68.91
2023-02-24T09:46:16.013Z,68.91
2023-02-24T09:47:15.972Z,68.50
2023-02-24T09:48:16.868Z,68.60
2023-02-24T09:49:16.965Z,69.32
2023-02-24T09:50:17.252Z,69.01
2023-02-24T09:51:16.986Z,69.22
2023-02-24T09:52:15.911Z,69.42
2023-02-24T09:53:16.043Z,69.01
2023-02-24T09:54:15.926Z,67.75
2023-02-24T09:55:15.898Z,68.37
2023-02-24T09:56:15.905Z,67.95
2023-02-24T09:57:15.933Z,68.88
2023-02-24T09:58:15.882Z,69.18
2023-02-24T09:59:15.899Z,68.26
2023-02-24T10:00:15.906Z,68.98
2023-02-24T10:01:15.906Z,68.37
2023-02-24T10:02:15.920Z,68.98
2023-02-24T10:03:15.879Z,67.95
2023-02-24T10:04:21.099Z,68.77
2023-02-24T10:05:17.907Z,68.57
2023-02-24T10:06:15.864Z,68.57
2023-02-24T10:07:15.857Z,68.16
2023-02-24T10:08:15.855Z,67.68
2023-02-24T10:09:15.843Z,68.08
2023-02-24T10:10:15.867Z,68.80
2023-02-24T10:11:15.843Z,69.29
2023-02-24T10:12:15.828Z,68.60
2023-02-24T10:13:15.832Z,68.46
2023-02-24T10:14:15.823Z,68.70
2023-02-24T10:15:15.851Z,69.12
2023-02-24T10:16:15.857Z,69.22
2023-02-24T10:17:15.830Z,68.91
2023-02-24T10:18:15.801Z,68.08
2023-02-24T10:19:15.794Z,68.22
2023-02-24T10:20:15.796Z,69.46
2023-02-24T10:21:15.858Z,69.70
2023-02-24T10:22:15.779Z,70.52
2023-02-24T10:23:15.782Z,70.21
2023-02-24T10:24:15.770Z,70.62
2023-02-24T10:25:21.255Z,70.52
2023-02-24T10:26:17.792Z,70.52
2023-02-24T10:27:17.371Z,70.10
2023-02-24T10:28:16.776Z,70.72
2023-02-24T10:29:17.374Z,70.96
2023-02-24T10:30:15.747Z,70.10
2023-02-24T10:31:15.888Z,71.24
2023-02-24T10:32:15.917Z,70.83
2023-02-24T10:33:15.730Z,71.75
2023-02-24T10:34:15.725Z,71.75
2023-02-24T10:35:15.709Z,70.21
2023-02-24T10:36:15.719Z,70.93
2023-02-24T10:37:27.611Z,70.34
2023-02-24T10:38:17.710Z,71.17
2023-02-24T10:39:15.717Z,71.44
2023-02-24T10:40:15.689Z,71.86
2023-02-24T10:41:15.727Z,70.42
2023-02-24T10:42:16.067Z,70.45
2023-02-24T10:43:15.728Z,70.31
2023-02-24T10:44:15.699Z,70.76
2023-02-24T10:45:19.106Z,70.28
2023-02-24T10:46:16.779Z,70.79
2023-02-24T10:47:15.716Z,70.68
2023-02-24T10:48:15.692Z,71.20
2023-02-24T10:49:17.156Z,71.82
2023-02-24T10:50:15.650Z,71.17
2023-02-24T10:51:15.704Z,70.55
2023-02-24T10:52:15.632Z,70.68
2023-02-24T10:53:16.652Z,71.17
2023-02-24T10:54:15.661Z,71.58
2023-02-24T10:55:15.637Z,71.06
2023-02-24T10:56:15.656Z,70.24
2023-02-24T10:57:15.766Z,71.20
2023-02-24T10:58:15.653Z,69.79
2023-02-24T10:59:15.621Z,71.23
2023-02-24T11:00:15.620Z,70.10
2023-02-24T11:01:15.622Z,69.79
2023-02-24T11:02:15.652Z,69.00
2023-02-24T11:03:27.961Z,69.38
2023-02-24T11:04:17.594Z,69.27
2023-02-24T11:05:15.594Z,69.35
2023-02-24T11:06:15.578Z,69.14
2023-02-24T11:07:15.576Z,69.01
2023-02-24T11:08:15.633Z,67.39
2023-02-24T11:09:15.582Z,67.05
2023-02-24T11:10:15.558Z,66.46
2023-02-24T11:11:15.573Z,67.60
2023-02-24T11:12:15.558Z,67.63
2023-02-24T11:13:15.584Z,67.63
2023-02-24T11:14:15.554Z,67.11
2023-02-24T11:15:15.569Z,66.52
2023-02-24T11:16:15.728Z,66.63
2023-02-24T11:17:15.586Z,67.83
2023-02-24T11:18:15.548Z,69.48
2023-02-24T11:19:15.570Z,67.35
2023-02-24T11:20:15.512Z,67.76
2023-02-24T11:21:15.589Z,68.38
2023-02-24T11:22:15.506Z,69.62
2023-02-24T11:23:15.506Z,67.76
2023-02-24T11:24:15.539Z,68.51
2023-02-24T11:25:15.539Z,68.41
2023-02-24T11:26:15.503Z,69.20
2023-02-24T11:27:15.495Z,69.03
2023-02-24T11:28:15.487Z,68.62
2023-02-24T11:29:15.505Z,69.10
2023-02-24T11:30:15.510Z,69.54
2023-02-24T11:31:15.621Z,69.10
2023-02-24T11:32:15.762Z,69.51
2023-02-24T11:33:15.457Z,69.10
2023-02-24T11:34:15.487Z,68.38
2023-02-24T11:35:16.090Z,67.45
2023-02-24T11:36:15.452Z,69.34
2023-02-24T11:37:15.470Z,68.48
2023-02-24T11:38:15.427Z,69.24
2023-02-24T11:39:20.064Z,69.54
2023-02-24T11:40:17.466Z,69.24
2023-02-24T11:41:15.455Z,69.03
2023-02-24T11:42:15.465Z,69.44
2023-02-24T11:43:15.411Z,69.03
2023-02-24T11:44:15.768Z,69.65
2023-02-24T11:45:15.445Z,69.24
2023-02-24T11:46:15.503Z,69.34
2023-02-24T11:47:15.399Z,69.03
2023-02-24T11:48:15.388Z,69.65
2023-02-24T11:49:15.493Z,69.24
2023-02-24T11:50:15.412Z,69.24
2023-02-24T11:51:15.406Z,68.75
2023-02-24T11:52:15.362Z,69.27
2023-02-24T11:53:15.388Z,68.65
2023-02-24T11:54:15.394Z,69.17
2023-02-24T11:55:15.364Z,69.06
2023-02-24T11:56:15.395Z,69.78
2023-02-24T11:57:15.384Z,69.78
2023-02-24T11:58:15.405Z,69.37
2023-02-24T11:59:15.341Z,69.85
2023-02-24T12:00:15.528Z,69.68
2023-02-24T12:01:15.365Z,69.44
2023-02-24T12:02:15.323Z,69.24
2023-02-24T12:03:15.366Z,69.24
2023-02-24T12:04:15.343Z,69.13
2023-02-24T12:05:15.329Z,69.24
2023-02-24T12:06:15.382Z,69.34
2023-02-24T12:07:15.278Z,69.20
2023-02-24T12:08:15.290Z,69.13
2023-02-24T12:09:15.352Z,69.75
2023-02-24T12:10:17.414Z,70.37
2023-02-24T12:11:16.285Z,70.17
2023-02-24T12:12:15.299Z,69.75
2023-02-24T12:13:15.300Z,70.17
2023-02-24T12:14:15.260Z,70.68
2023-02-24T12:15:15.256Z,70.20
2023-02-24T12:16:15.290Z,70.40
2023-02-24T12:17:15.261Z,71.88
2023-02-24T12:18:15.286Z,71.44
2023-02-24T12:19:15.219Z,72.19
2023-02-24T12:20:16.295Z,73.05
2023-02-24T12:21:15.241Z,73.95
2023-02-24T12:22:15.268Z,73.54
2023-02-24T12:23:15.224Z,72.81
2023-02-24T12:24:15.209Z,72.61
2023-02-24T12:25:15.238Z,74.08
2023-02-24T12:26:15.233Z,75.32
2023-02-24T12:27:15.214Z,75.22
2023-02-24T12:28:15.273Z,75.43
2023-02-24T12:29:15.195Z,76.26
2023-02-24T12:30:15.193Z,76.15
2023-02-24T12:31:15.301Z,76.56
2023-02-24T12:32:15.329Z,75.98
2023-02-24T12:33:15.226Z,77.29
2023-02-24T12:34:15.164Z,77.53
2023-02-24T12:35:15.208Z,77.81
2023-02-24T12:36:15.209Z,78.15
2023-02-24T12:37:15.129Z,77.60
2023-02-24T12:38:15.161Z,78.15
2023-02-24T12:39:15.128Z,78.67
2023-02-24T12:40:15.121Z,79.74
2023-02-24T12:41:15.139Z,80.40
2023-02-24T12:42:15.141Z,81.23
2023-02-24T12:43:15.131Z,81.09
2023-02-24T12:44:15.124Z,81.60
2023-02-24T12:45:15.126Z,82.22
2023-02-24T12:46:15.151Z,82.01
2023-02-24T12:47:15.093Z,81.56
2023-02-24T12:48:15.081Z,81.77
2023-02-24T12:49:15.106Z,81.56
2023-02-24T12:50:15.080Z,82.08
2023-02-24T12:51:15.094Z,82.18
2023-02-24T12:52:15.089Z,82.18